createdAt,value
2023-01-11T00:00:18.168Z,97576.13
2023-01-11T00:02:45.956Z,97572.66
2023-01-11T00:05:12.514Z,97578.78
2023-01-11T00:07:40.925Z,97581.22
2023-01-11T00:10:09.283Z,97580.41
2023-01-11T00:12:37.233Z,97583.09
2023-01-11T00:15:03.830Z,97584.72
2023-01-11T00:17:30.390Z,97584.94
2023-01-11T00:19:56.933Z,97576.69
2023-01-11T00:22:23.557Z,97586.56
2023-01-11T00:24:50.102Z,97576.44
2023-01-11T00:27:16.682Z,97567.09
2023-01-11T00:29:44.577Z,97560.47
2023-01-11T00:32:11.346Z,97575.44
2023-01-11T00:34:37.859Z,97573.81
2023-01-11T00:37:04.623Z,97572.47
2023-01-11T00:39:31.474Z,97576.75
2023-01-11T00:42:16.486Z,97574.09
2023-01-11T00:45:02.999Z,97562.59
2023-01-11T00:47:48.241Z,97547.34
2023-01-11T00:50:14.862Z,97539.31
2023-01-11T00:52:41.421Z,97535.84
2023-01-11T00:55:08.486Z,97540.13
2023-01-11T00:57:35.104Z,97550.09
2023-01-11T01:00:04.239Z,97552.75
2023-01-11T01:02:32.029Z,97552.84
2023-01-11T01:04:58.634Z,97552.84
2023-01-11T01:07:25.246Z,97547.81
2023-01-11T01:09:51.828Z,97551.88
2023-01-11T01:12:36.992Z,97560.94
2023-01-11T01:15:05.283Z,97550.56
2023-01-11T01:17:31.823Z,97547.63
2023-01-11T01:19:58.483Z,97545.84
2023-01-11T01:22:25.042Z,97543.69
2023-01-11T01:24:51.579Z,97544.53
2023-01-11T01:27:20.077Z,97557.97
2023-01-11T01:29:46.914Z,97556.66
2023-01-11T01:32:14.902Z,97562.84
2023-01-11T01:34:41.519Z,97558.78
2023-01-11T01:37:08.542Z,97558.53
2023-01-11T01:39:35.140Z,97556.50
2023-01-11T01:42:01.765Z,97548.94
2023-01-11T01:44:46.743Z,97551.13
2023-01-11T01:47:13.802Z,97545.03
2023-01-11T01:49:42.571Z,97546.34
2023-01-11T01:52:10.033Z,97547.94
2023-01-11T01:54:39.446Z,97546.91
2023-01-11T01:57:09.219Z,97534.66
2023-01-11T01:59:36.075Z,97526.13
2023-01-11T02:02:02.785Z,97529.03
2023-01-11T02:04:31.476Z,97516.78
2023-01-11T02:07:00.963Z,97527.78
2023-01-11T02:09:32.500Z,97518.16
2023-01-11T02:12:00.033Z,97518.47
2023-01-11T02:14:28.243Z,97524.13
2023-01-11T02:16:55.259Z,97521.94
2023-01-11T02:19:28.593Z,97508.81
2023-01-11T02:22:12.955Z,97513.97
2023-01-11T02:24:56.672Z,97509.19
2023-01-11T02:27:33.939Z,97489.38
2023-01-11T02:30:09.745Z,97484.53
2023-01-11T02:32:43.823Z,97493.16
2023-01-11T02:35:16.999Z,97482.22
2023-01-11T02:37:48.963Z,97479.84
2023-01-11T02:40:18.995Z,97481.13
2023-01-11T02:43:09.253Z,97475.25
2023-01-11T02:45:42.527Z,97464.03
2023-01-11T02:48:16.528Z,97462.41
2023-01-11T02:50:46.824Z,97464.09
2023-01-11T02:53:16.939Z,97466.06
2023-01-11T02:55:48.304Z,97454.09
2023-01-11T02:58:16.543Z,97458.72
2023-01-11T03:00:44.812Z,97450.22
2023-01-11T03:03:13.864Z,62402.38
2023-01-11T03:05:43.841Z,62402.38
2023-01-11T03:08:14.210Z,62402.38
2023-01-11T03:10:47.915Z,62402.38
2023-01-11T03:13:21.394Z,62402.38
2023-01-11T03:16:05.904Z,62402.38
2023-01-11T03:18:38.412Z,62402.38
2023-01-11T03:21:14.700Z,62402.38
2023-01-11T03:23:47.886Z,97409.88
2023-01-11T03:26:20.425Z,97417.44
2023-01-11T03:28:53.754Z,97414.91
2023-01-11T03:31:21.982Z,97392.44
2023-01-11T03:33:56.563Z,97392.19
2023-01-11T03:36:26.270Z,97383.41
2023-01-11T03:38:56.087Z,97375.88
2023-01-11T03:41:24.290Z,97386.16
2023-01-11T03:43:52.904Z,97377.31
2023-01-11T03:46:22.167Z,97372.47
2023-01-11T03:48:53.380Z,97372.47
2023-01-11T03:51:22.299Z,97370.00
2023-01-11T03:53:49.780Z,97379.66
2023-01-11T03:56:18.615Z,97382.34
2023-01-11T03:58:45.179Z,97370.28
2023-01-11T04:01:12.481Z,97361.75
2023-01-11T04:03:39.194Z,97366.84
2023-01-11T04:06:08.466Z,62402.38
2023-01-11T04:08:34.962Z,62402.38
2023-01-11T04:11:03.467Z,62402.38
2023-01-11T04:13:30.657Z,97366.84
2023-01-11T04:15:57.284Z,97341.72
2023-01-11T04:18:23.839Z,97340.13
2023-01-11T04:20:50.479Z,97335.81
2023-01-11T04:23:18.603Z,97330.69
2023-01-11T04:25:45.235Z,62402.38
2023-01-11T04:28:11.805Z,62402.38
2023-01-11T04:30:38.371Z,62402.38
2023-01-11T04:33:04.905Z,62402.38
2023-01-11T04:35:31.533Z,62402.38
2023-01-11T04:37:58.491Z,62402.38
2023-01-11T04:40:26.497Z,62402.38
2023-01-11T04:42:53.011Z,62402.38
2023-01-11T04:45:19.626Z,62402.38
2023-01-11T04:47:46.144Z,62402.38
2023-01-11T04:50:12.865Z,62402.38
2023-01-11T04:52:41.593Z,62402.38
2023-01-11T04:55:08.955Z,62402.38
2023-01-11T04:57:36.891Z,62402.38
2023-01-11T05:00:08.720Z,62402.38
2023-01-11T05:02:35.250Z,62402.38
2023-01-11T05:05:01.843Z,62402.38
2023-01-11T05:07:28.416Z,62402.38
2023-01-11T05:09:54.990Z,62402.38
2023-01-11T05:12:21.494Z,62402.38
2023-01-11T05:14:49.593Z,62402.38
2023-01-11T05:17:16.452Z,62402.38
2023-01-11T05:19:43.080Z,62402.38
2023-01-11T05:22:09.956Z,62402.38
2023-01-11T05:24:36.689Z,62402.38
2023-01-11T05:27:03.683Z,62402.38
2023-01-11T05:29:30.357Z,62402.38
2023-01-11T05:31:58.530Z,62402.38
2023-01-11T05:34:25.263Z,62402.38
2023-01-11T05:36:51.866Z,62402.38
2023-01-11T05:39:18.595Z,62402.38
2023-01-11T05:41:45.269Z,62402.38
2023-01-11T05:44:31.199Z,62402.38
2023-01-11T05:46:59.364Z,62402.38
2023-01-11T05:49:26.143Z,62402.38
2023-01-11T05:51:52.767Z,62402.38
2023-01-11T05:54:19.490Z,97330.69
2023-01-11T05:56:46.176Z,97279.25
2023-01-11T05:59:12.895Z,97275.00
2023-01-11T06:01:39.797Z,97277.44
2023-01-11T06:04:08.671Z,97270.41
2023-01-11T06:06:35.450Z,97270.66
2023-01-11T06:09:02.164Z,97283.84
2023-01-11T06:11:28.838Z,97273.91
2023-01-11T06:13:55.538Z,97267.75
2023-01-11T06:16:22.582Z,97275.84
2023-01-11T06:18:50.259Z,97276.94
2023-01-11T06:21:18.803Z,97261.59
2023-01-11T06:23:46.387Z,97268.63
2023-01-11T06:26:14.685Z,97273.44
2023-01-11T06:28:41.428Z,97274.28
2023-01-11T06:31:08.740Z,97264.59
2023-01-11T06:33:35.376Z,97260.28
2023-01-11T06:36:03.673Z,97258.69
2023-01-11T06:38:31.657Z,97256.00
2023-01-11T06:41:00.319Z,97250.59
2023-01-11T06:43:27.751Z,97251.41
2023-01-11T06:45:54.506Z,97254.34
2023-01-11T06:48:21.665Z,97250.88
2023-01-11T06:50:48.892Z,97259.72
2023-01-11T06:53:15.465Z,97258.09
2023-01-11T06:55:43.457Z,97250.06
2023-01-11T06:58:10.320Z,97251.69
2023-01-11T07:00:36.859Z,97254.09
2023-01-11T07:03:04.367Z,97253.00
2023-01-11T07:05:31.723Z,97248.94
2023-01-11T07:07:58.444Z,97255.94
2023-01-11T07:10:25.014Z,97257.78
2023-01-11T07:12:53.598Z,97252.41
2023-01-11T07:15:20.167Z,97263.97
2023-01-11T07:17:48.889Z,97258.59
2023-01-11T07:20:15.553Z,97256.47
2023-01-11T07:22:42.074Z,97256.47
2023-01-11T07:25:08.783Z,97260.81
2023-01-11T07:27:35.313Z,97265.09
2023-01-11T07:30:03.393Z,97268.06
2023-01-11T07:32:29.873Z,97264.03
2023-01-11T07:34:56.674Z,97263.22
2023-01-11T07:37:28.570Z,97276.66
2023-01-11T07:39:56.130Z,97281.53
2023-01-11T07:42:41.336Z,97272.91
2023-01-11T07:45:09.952Z,97266.72
2023-01-11T07:47:36.480Z,97268.34
2023-01-11T07:50:03.206Z,97268.88
2023-01-11T07:52:29.783Z,97259.97
2023-01-11T07:55:02.333Z,97257.56
2023-01-11T07:57:28.998Z,97254.84
2023-01-11T07:59:55.501Z,62402.38
2023-01-11T08:02:23.516Z,62402.38
2023-01-11T08:04:50.507Z,97254.84
2023-01-11T08:07:17.134Z,62402.38
2023-01-11T08:09:43.712Z,62402.38
2023-01-11T08:12:28.560Z,62402.38
2023-01-11T08:14:55.295Z,62402.38
2023-01-11T08:17:23.212Z,62402.38
2023-01-11T08:19:49.776Z,62402.38
2023-01-11T08:22:18.128Z,62402.38
2023-01-11T08:24:44.610Z,62402.38
2023-01-11T08:27:11.216Z,62402.38
2023-01-11T08:29:38.154Z,62402.38
2023-01-11T08:32:04.963Z,97250.31
2023-01-11T08:34:34.633Z,97246.50
2023-01-11T08:37:02.299Z,97272.84
2023-01-11T08:39:31.753Z,97256.69
2023-01-11T08:41:58.518Z,97270.97
2023-01-11T08:44:33.852Z,97271.47
2023-01-11T08:47:01.189Z,97268.19
2023-01-11T08:49:27.752Z,97272.78
2023-01-11T08:51:55.674Z,97262.56
2023-01-11T08:54:22.224Z,97258.50
2023-01-11T08:56:48.677Z,97264.88
2023-01-11T08:59:15.219Z,97262.78
2023-01-11T09:01:41.795Z,62402.38
2023-01-11T09:04:19.381Z,62402.38
2023-01-11T09:06:49.866Z,62402.38
2023-01-11T09:09:17.968Z,62402.38
2023-01-11T09:11:57.426Z,62402.38
2023-01-11T09:14:25.517Z,97261.34
2023-01-11T09:16:52.684Z,62402.38
2023-01-11T09:19:19.713Z,62402.38
2023-01-11T09:21:46.674Z,62402.38
2023-01-11T09:24:13.486Z,62402.38
2023-01-11T09:26:44.010Z,62402.38
2023-01-11T09:29:10.914Z,62402.38
2023-01-11T09:31:37.747Z,62402.38
2023-01-11T09:34:04.898Z,62402.38
2023-01-11T09:36:33.277Z,62402.38
2023-01-11T09:39:02.204Z,62402.38
2023-01-11T09:41:34.526Z,62402.38
2023-01-11T09:44:10.396Z,62402.38
2023-01-11T09:46:39.935Z,97277.25
2023-01-11T09:49:07.844Z,97287.78
2023-01-11T09:51:35.789Z,97289.84
2023-01-11T09:54:05.984Z,97297.69
2023-01-11T09:56:39.055Z,97283.69
2023-01-11T09:59:14.895Z,97285.84
2023-01-11T10:01:45.636Z,97286.91
2023-01-11T10:04:33.422Z,62402.38
2023-01-11T10:07:12.492Z,62402.38
2023-01-11T10:18:29.106Z,62402.38
2023-01-11T10:18:49.726Z,62402.38
2023-01-11T10:21:19.083Z,62402.38
2023-01-11T10:23:50.397Z,62402.38
2023-01-11T10:26:27.363Z,97315.38
2023-01-11T10:29:17.366Z,97322.34
2023-01-11T10:32:10.030Z,62402.38
2023-01-11T10:34:59.940Z,62402.38
2023-01-11T10:37:46.741Z,97340.41
2023-01-11T10:40:31.355Z,97331.78
2023-01-11T10:43:03.453Z,97340.16
2023-01-11T10:45:34.928Z,97354.91
2023-01-11T10:48:05.984Z,97351.41
2023-01-11T10:50:36.453Z,97346.03
2023-01-11T10:53:07.603Z,97351.44
2023-01-11T10:55:40.750Z,97348.25
2023-01-11T10:58:14.482Z,97348.47
2023-01-11T11:00:44.932Z,97357.06
2023-01-11T11:03:26.375Z,97357.88
2023-01-11T11:05:57.923Z,97358.63
2023-01-11T11:08:28.500Z,97357.00
2023-01-11T11:10:59.640Z,97341.88
2023-01-11T11:13:30.932Z,97336.47
2023-01-11T11:16:03.335Z,97333.25
2023-01-11T11:18:29.923Z,97329.41
2023-01-11T11:21:00.620Z,97326.69
2023-01-11T11:23:28.815Z,97325.31
2023-01-11T11:25:57.439Z,97319.88
2023-01-11T11:28:25.535Z,62402.38
2023-01-11T11:30:53.463Z,62402.38
2023-01-11T11:33:21.165Z,62402.38
2023-01-11T11:35:55.003Z,62402.38
2023-01-11T11:38:23.802Z,62402.38
2023-01-11T11:40:57.259Z,62402.38
2023-01-11T11:43:24.454Z,62402.38
2023-01-11T11:45:51.837Z,62402.38
2023-01-11T11:48:19.025Z,62402.38
2023-01-11T11:50:46.415Z,62402.38
2023-01-11T11:53:33.442Z,62402.38
2023-01-11T11:56:05.356Z,62402.38
2023-01-11T11:58:32.043Z,62402.38
2023-01-11T12:00:58.674Z,62402.38
2023-01-11T12:03:29.171Z,97332.28
2023-01-11T12:06:00.431Z,97330.25
2023-01-11T12:08:29.853Z,62402.38
2023-01-11T12:10:58.445Z,62402.38
2023-01-11T12:13:27.378Z,62402.38
2023-01-11T12:15:56.084Z,62402.38
2023-01-11T12:18:24.056Z,62402.38
2023-01-11T12:20:50.583Z,62402.38
2023-01-11T12:23:18.419Z,97340.69
2023-01-11T12:25:53.070Z,62402.38
2023-01-11T12:28:28.142Z,62402.38
2023-01-11T12:30:58.250Z,62402.38
2023-01-11T12:33:31.258Z,62402.38
2023-01-11T12:36:03.663Z,62402.38
2023-01-11T12:38:32.536Z,62402.38
2023-01-11T12:41:08.766Z,62402.38
2023-01-11T12:43:45.887Z,62402.38
2023-01-11T12:46:19.099Z,62402.38
2023-01-11T12:48:56.062Z,62402.38
2023-01-11T12:51:37.029Z,62402.38
2023-01-11T12:54:10.473Z,62402.38
2023-01-11T12:56:44.689Z,62402.38
2023-01-11T12:59:19.949Z,62402.38
2023-01-11T13:01:50.822Z,62402.38
2023-01-11T13:04:36.044Z,62402.38
2023-01-11T13:07:09.771Z,62402.38
2023-01-11T13:09:44.432Z,62402.38
2023-01-11T13:12:14.059Z,62402.38
2023-01-11T13:14:48.249Z,62402.38
2023-01-11T13:17:25.118Z,62402.38
2023-01-11T13:19:58.123Z,62402.38
2023-01-11T13:22:28.876Z,97385.28
2023-01-11T13:24:56.972Z,97392.81
2023-01-11T13:27:25.880Z,97390.66
2023-01-11T13:29:54.420Z,97396.06
2023-01-11T13:32:23.421Z,97393.88
2023-01-11T13:34:52.353Z,62402.38
2023-01-11T13:37:22.686Z,62402.38
2023-01-11T13:39:52.807Z,62402.38
2023-01-11T13:42:21.663Z,62402.38
2023-01-11T13:44:51.646Z,62402.38
2023-01-11T13:47:20.918Z,62402.38
2023-01-11T13:49:50.198Z,62402.38
2023-01-11T13:52:17.611Z,62402.38
2023-01-11T13:54:47.936Z,62402.38
2023-01-11T13:57:21.868Z,62402.38
2023-01-11T13:59:52.272Z,62402.38
2023-01-11T14:02:23.279Z,62402.38
2023-01-11T14:04:51.990Z,62402.38
2023-01-11T14:07:25.676Z,62402.38
2023-01-11T14:10:10.951Z,62402.38
2023-01-11T14:12:45.534Z,62402.38
2023-01-11T14:15:18.923Z,62402.38
2023-01-11T14:18:05.632Z,62402.38
2023-01-11T14:20:37.912Z,62402.38
2023-01-11T14:23:09.155Z,62402.38
2023-01-11T14:25:38.475Z,62402.38
2023-01-11T14:28:11.703Z,62402.38
2023-01-11T14:30:50.684Z,62402.38
2023-01-11T14:33:34.957Z,62402.38
2023-01-11T14:36:13.996Z,97486.06
2023-01-11T14:39:01.676Z,97486.06
2023-01-11T14:41:40.935Z,97495.00
2023-01-11T14:44:15.576Z,97507.63
2023-01-11T14:46:51.482Z,97509.00
2023-01-11T14:49:27.998Z,97504.69
2023-01-11T14:51:56.423Z,97520.88
2023-01-11T14:54:26.195Z,97516.56
2023-01-11T14:56:54.330Z,97523.03
2023-01-11T14:59:25.129Z,97524.66
2023-01-11T15:05:11.000Z,97517.66
2023-01-11T15:07:40.165Z,62402.38
2023-01-11T15:10:21.529Z,62402.38
2023-01-11T15:12:48.348Z,62402.38
2023-01-11T15:15:17.438Z,62402.38
2023-01-11T15:18:02.465Z,62402.38
2023-01-11T15:20:29.326Z,62402.38
2023-01-11T15:22:58.319Z,62402.38
2023-01-11T15:25:26.391Z,62402.38
2023-01-11T15:27:53.685Z,62402.38
2023-01-11T15:30:37.643Z,62402.38
2023-01-11T15:33:28.107Z,62402.38
2023-01-11T15:36:02.450Z,62402.38
2023-01-11T15:38:33.164Z,62402.38
2023-01-11T15:41:22.612Z,62402.38
2023-01-11T15:43:58.577Z,62402.38
2023-01-11T15:46:58.307Z,62402.38
2023-01-11T15:49:39.701Z,62402.38
2023-01-11T15:52:13.228Z,62402.38
2023-01-11T15:54:53.014Z,62402.38
2023-01-11T15:57:45.059Z,62402.38
2023-01-11T16:00:30.114Z,62402.38
2023-01-11T16:03:14.412Z,62402.38
2023-01-11T16:05:42.655Z,62402.38
2023-01-11T16:08:16.613Z,62402.38
2023-01-11T16:10:51.523Z,62402.38
2023-01-11T16:13:36.001Z,62402.38
2023-01-11T16:16:10.507Z,62402.38
2023-01-11T16:18:39.069Z,62402.38
2023-01-11T16:21:07.451Z,62402.38
2023-01-11T16:23:34.351Z,62402.38
2023-01-11T16:26:02.662Z,62402.38
2023-01-11T16:28:29.247Z,62402.38
2023-01-11T16:30:56.840Z,62402.38
2023-01-11T16:33:24.822Z,62402.38
2023-01-11T16:36:02.718Z,62402.38
2023-01-11T16:38:30.120Z,62402.38
2023-01-11T16:40:57.393Z,62402.38
2023-01-11T16:43:28.428Z,62402.38
2023-01-11T16:45:55.755Z,62402.38
2023-01-11T16:48:23.042Z,62402.38
2023-01-11T16:50:58.134Z,62402.38
2023-01-11T16:53:25.908Z,62402.38
2023-01-11T16:55:54.711Z,62402.38
2023-01-11T16:58:25.590Z,62402.38
2023-01-11T17:00:58.902Z,62402.38
2023-01-11T17:03:26.208Z,62402.38
2023-01-11T17:06:00.501Z,62402.38
2023-01-11T17:08:29.478Z,62402.38
2023-01-11T17:10:57.394Z,62402.38
2023-01-11T17:13:53.720Z,62402.38
2023-01-11T17:16:23.817Z,62402.38
2023-01-11T17:18:50.585Z,62402.38
2023-01-11T17:21:18.382Z,62402.38
2023-01-11T17:23:45.993Z,62402.38
2023-01-11T17:26:15.018Z,62402.38
2023-01-11T17:28:44.097Z,62402.38
2023-01-11T17:31:17.226Z,62402.38
2023-01-11T17:33:48.054Z,62402.38
2023-01-11T17:36:15.472Z,62402.38
2023-01-11T17:38:43.581Z,62402.38
2023-01-11T17:41:29.297Z,62402.38
2023-01-11T17:44:14.677Z,62402.38
2023-01-11T17:46:41.547Z,62402.38
2023-01-11T17:49:18.745Z,62402.38
2023-01-11T17:51:45.337Z,62402.38
2023-01-11T17:54:18.618Z,62402.38
2023-01-11T17:56:48.214Z,62402.38
2023-01-11T17:59:16.607Z,62402.38
2023-01-11T18:01:46.073Z,62402.38
2023-01-11T18:04:19.215Z,62402.38
2023-01-11T18:06:48.330Z,62402.38
2023-01-11T18:09:23.241Z,62402.38
2023-01-11T18:11:50.930Z,62402.38
2023-01-11T18:14:19.645Z,62402.38
2023-01-11T18:16:55.460Z,62402.38
2023-01-11T18:19:30.129Z,62402.38
2023-01-11T18:21:56.762Z,62402.38
2023-01-11T18:24:46.984Z,62402.38
2023-01-11T18:27:25.234Z,62402.38
2023-01-11T18:29:52.252Z,62402.38
2023-01-11T18:32:18.820Z,62402.38
2023-01-11T18:34:48.498Z,62402.38
2023-01-11T18:37:15.235Z,62402.38
2023-01-11T18:39:42.750Z,62402.38
2023-01-11T18:42:14.579Z,62402.38
2023-01-11T18:44:42.097Z,62402.38
2023-01-11T18:47:14.241Z,62402.38
2023-01-11T18:49:40.770Z,62402.38
2023-01-11T18:52:08.909Z,62402.38
2023-01-11T18:54:36.092Z,62402.38
2023-01-11T18:57:02.815Z,62402.38
2023-01-11T18:59:29.558Z,62402.38
2023-01-11T19:02:15.635Z,62402.38
2023-01-11T19:04:42.476Z,62402.38
2023-01-11T19:07:10.715Z,62402.38
2023-01-11T19:09:37.429Z,62402.38
2023-01-11T19:12:04.380Z,62402.38
2023-01-11T19:14:31.487Z,62402.38
2023-01-11T19:16:58.016Z,62402.38
2023-01-11T19:19:24.703Z,62402.38
2023-01-11T19:21:51.202Z,62402.38
2023-01-11T19:24:20.211Z,62402.38
2023-01-11T19:26:47.588Z,62402.38
2023-01-11T19:29:17.539Z,62402.38
2023-01-11T19:31:44.358Z,62402.38
2023-01-11T19:34:12.019Z,62402.38
2023-01-11T19:36:38.714Z,62402.38
2023-01-11T19:39:05.498Z,62402.38
2023-01-11T19:41:53.403Z,62402.38
2023-01-11T19:44:20.166Z,62402.38
2023-01-11T19:46:53.053Z,62402.38
2023-01-11T19:49:23.875Z,62402.38
2023-01-11T19:51:50.572Z,62402.38
2023-01-11T19:54:20.764Z,62402.38
2023-01-11T19:56:51.427Z,62402.38
2023-01-11T19:59:18.141Z,62402.38
2023-01-11T20:01:46.305Z,62402.38
2023-01-11T20:04:13.310Z,62402.38
2023-01-11T20:06:40.766Z,62402.38
2023-01-11T20:09:07.572Z,62402.38
2023-01-11T20:11:34.095Z,62402.38
2023-01-11T20:14:02.434Z,62402.38
2023-01-11T20:16:30.419Z,62402.38
2023-01-11T20:18:57.609Z,62402.38
2023-01-11T20:21:25.377Z,62402.38
2023-01-11T20:23:52.254Z,62402.38
2023-01-11T20:26:19.121Z,62402.38
2023-01-11T20:28:50.211Z,62402.38
2023-01-11T20:31:18.659Z,62402.38
2023-01-11T20:33:45.352Z,62402.38
2023-01-11T20:36:13.189Z,62402.38
2023-01-11T20:38:40.040Z,62402.38
2023-01-11T20:41:07.726Z,62402.38
2023-01-11T20:43:35.768Z,62402.38
2023-01-11T20:46:02.809Z,62402.38
2023-01-11T20:48:30.729Z,62402.38
2023-01-11T20:50:58.887Z,62402.38
2023-01-11T20:53:25.370Z,62402.38
2023-01-11T20:55:51.908Z,62402.38
2023-01-11T20:58:18.618Z,62402.38
2023-01-11T21:00:45.117Z,62402.38
2023-01-11T21:03:11.611Z,62402.38
2023-01-11T21:05:39.415Z,62402.38
2023-01-11T21:08:05.989Z,62402.38
2023-01-11T21:10:32.609Z,62402.38
2023-01-11T21:15:24.664Z,62402.38
2023-01-11T21:17:51.248Z,62402.38
2023-01-11T21:20:17.998Z,62402.38
2023-01-11T21:22:46.601Z,62402.38
2023-01-11T21:25:13.459Z,62402.38
2023-01-11T21:27:40.629Z,62402.38
2023-01-11T21:30:07.592Z,62402.38
2023-01-11T21:32:34.139Z,62402.38
2023-01-11T21:35:00.586Z,62402.38
2023-01-11T21:37:27.081Z,62402.38
2023-01-11T21:39:54.970Z,62402.38
2023-01-11T21:42:21.458Z,62402.38
2023-01-11T21:44:47.977Z,62402.38
2023-01-11T21:47:14.821Z,62402.38
2023-01-11T21:49:41.324Z,62402.38
2023-01-11T21:52:07.846Z,62402.38
2023-01-11T21:54:34.403Z,62402.38
2023-01-11T21:57:02.296Z,62402.38
2023-01-11T21:59:30.043Z,62402.38
2023-01-11T22:01:56.554Z,62402.38
2023-01-11T22:04:23.061Z,62402.38
2023-01-11T22:06:55.265Z,62402.38
2023-01-11T22:09:24.449Z,62402.38
2023-01-11T22:11:51.205Z,62402.38
2023-01-11T22:14:19.341Z,62402.38
2023-01-11T22:16:45.863Z,62402.38
2023-01-11T22:19:12.633Z,62402.38
2023-01-11T22:21:39.368Z,62402.38
2023-01-11T22:24:08.419Z,62402.38
2023-01-11T22:26:38.781Z,62402.38
2023-01-11T22:29:12.160Z,62402.38
2023-01-11T22:31:40.985Z,62402.38
2023-01-11T22:34:07.789Z,62402.38
2023-01-11T22:36:34.275Z,62402.38
2023-01-11T22:39:00.866Z,62402.38
2023-01-11T22:41:27.366Z,62402.38
2023-01-11T22:43:53.870Z,62402.38
2023-01-11T22:46:21.546Z,62402.38
2023-01-11T22:48:49.514Z,62402.38
2023-01-11T22:51:16.654Z,62402.38
2023-01-11T22:53:44.086Z,62402.38
2023-01-11T22:56:11.015Z,62402.38
2023-01-11T22:58:38.636Z,62402.38
2023-01-11T23:01:12.809Z,62402.38
2023-01-11T23:03:39.456Z,62402.38
2023-01-11T23:06:07.882Z,62402.38
2023-01-11T23:08:37.550Z,62402.38
2023-01-11T23:11:04.049Z,62402.38
2023-01-11T23:13:48.782Z,62402.38
2023-01-11T23:16:15.237Z,62402.38
2023-01-11T23:18:41.786Z,62402.38
2023-01-11T23:21:09.781Z,62402.38
2023-01-11T23:23:38.049Z,62402.38
2023-01-11T23:26:05.269Z,62402.38
2023-01-11T23:28:32.967Z,62402.38
2023-01-11T23:30:59.922Z,62402.38
2023-01-11T23:33:27.177Z,62402.38
2023-01-11T23:35:57.360Z,62402.38
2023-01-11T23:38:25.246Z,62402.38
2023-01-11T23:41:10.239Z,62402.38
2023-01-11T23:43:37.595Z,62402.38
2023-01-11T23:46:22.927Z,62402.38
2023-01-11T23:48:49.611Z,62402.38
2023-01-11T23:51:16.084Z,62402.38
2023-01-11T23:53:43.965Z,62402.38
2023-01-11T23:56:10.477Z,62402.38
2023-01-11T23:58:36.926Z,62402.38
